createdAt,value
2017-11-28T00:00:10.665Z,6.20
2017-11-28T00:02:38.095Z,6.20
2017-11-28T00:05:06.283Z,6.20
2017-11-28T00:07:33.761Z,6.20
2017-11-28T00:10:01.214Z,6.20
2017-11-28T00:12:28.686Z,6.20
2017-11-28T00:14:56.111Z,6.10
2017-11-28T00:17:24.330Z,6.10
2017-11-28T00:19:51.762Z,6.10
2017-11-28T00:22:19.966Z,6.20
2017-11-28T00:24:47.426Z,6.10
2017-11-28T00:27:14.855Z,6.10
2017-11-28T00:29:43.067Z,6.10
2017-11-28T00:32:10.498Z,6.10
2017-11-28T00:34:37.991Z,6.20
2017-11-28T00:37:05.423Z,6.10
2017-11-28T00:39:32.979Z,6.10
2017-11-28T00:42:01.215Z,6.10
2017-11-28T00:44:28.627Z,6.10
2017-11-28T00:46:56.066Z,6.10
2017-11-28T00:49:24.294Z,6.10
2017-11-28T00:51:51.751Z,6.10
2017-11-28T00:54:19.155Z,6.10
2017-11-28T00:56:46.570Z,6.10
2017-11-28T00:59:14.034Z,6.10
2017-11-28T01:01:41.495Z,6.10
2017-11-28T01:04:08.918Z,6.10
2017-11-28T01:06:37.098Z,6.00
2017-11-28T01:09:05.290Z,5.90
2017-11-28T01:11:32.706Z,5.90
2017-11-28T01:14:00.951Z,5.90
2017-11-28T01:16:28.367Z,5.90
2017-11-28T01:18:56.601Z,5.90
2017-11-28T01:21:24.124Z,5.90
2017-11-28T01:23:52.333Z,5.90
2017-11-28T01:26:19.799Z,5.80
2017-11-28T01:28:47.260Z,5.80
2017-11-28T01:31:14.682Z,5.80
2017-11-28T01:33:42.874Z,5.90
2017-11-28T01:36:10.291Z,5.90
2017-11-28T01:38:37.715Z,5.80
2017-11-28T01:41:05.183Z,5.90
2017-11-28T01:43:32.647Z,5.80
2017-11-28T01:46:00.073Z,5.80
2017-11-28T01:48:27.486Z,5.80
2017-11-28T01:50:55.019Z,5.80
2017-11-28T01:53:22.437Z,5.80
2017-11-28T01:55:50.629Z,5.80
2017-11-28T01:58:18.049Z,5.80
2017-11-28T02:00:45.580Z,5.80
2017-11-28T02:03:12.990Z,5.80
2017-11-28T02:05:40.407Z,5.90
2017-11-28T02:08:07.845Z,5.90
2017-11-28T02:10:35.263Z,6.00
2017-11-28T02:13:02.690Z,6.00
2017-11-28T02:15:30.145Z,6.00
2017-11-28T02:17:57.607Z,6.00
2017-11-28T02:20:25.006Z,6.10
2017-11-28T02:22:52.551Z,6.10
2017-11-28T02:25:19.976Z,6.10
2017-11-28T02:27:47.407Z,6.10
2017-11-28T02:30:15.594Z,6.10
2017-11-28T02:32:46.670Z,6.10
2017-11-28T02:35:14.138Z,6.10
2017-11-28T02:37:41.599Z,6.10
2017-11-28T02:40:09.029Z,6.10
2017-11-28T02:42:37.334Z,6.20
2017-11-28T02:45:04.775Z,6.10
2017-11-28T02:47:32.196Z,6.10
2017-11-28T02:50:03.249Z,6.20
2017-11-28T02:52:30.766Z,6.20
2017-11-28T02:55:05.903Z,6.30
2017-11-28T02:57:33.315Z,6.30
2017-11-28T03:00:01.521Z,6.30
2017-11-28T03:02:29.002Z,6.30
2017-11-28T03:04:56.462Z,6.20
2017-11-28T03:07:26.579Z,6.20
2017-11-28T03:09:55.998Z,6.10
2017-11-28T03:12:25.118Z,6.00
2017-11-28T03:17:46.330Z,5.90
2017-11-28T03:20:19.395Z,5.90
2017-11-28T03:22:49.413Z,5.90
2017-11-28T03:25:21.247Z,5.90
2017-11-28T03:27:50.990Z,6.00
2017-11-28T03:33:16.867Z,5.90
2017-11-28T03:35:44.296Z,5.90
2017-11-28T03:38:11.755Z,5.90
2017-11-28T03:40:39.211Z,5.90
2017-11-28T03:43:06.655Z,6.10
2017-11-28T03:48:31.195Z,6.10
2017-11-28T03:50:58.732Z,6.10
2017-11-28T03:53:26.195Z,6.00
2017-11-28T03:55:53.624Z,6.00
2017-11-28T03:58:21.114Z,6.00
2017-11-28T04:00:48.574Z,6.00
2017-11-28T04:03:16.006Z,6.00
2017-11-28T04:05:44.193Z,6.00
2017-11-28T04:08:11.670Z,6.00
2017-11-28T04:10:39.101Z,6.00
2017-11-28T04:13:07.319Z,5.90
2017-11-28T04:15:34.771Z,5.90
2017-11-28T04:18:02.239Z,5.90
2017-11-28T04:20:29.675Z,5.90
2017-11-28T04:22:57.158Z,5.90
2017-11-28T04:25:24.615Z,6.00
2017-11-28T04:27:52.092Z,6.00
2017-11-28T04:30:19.533Z,5.90
2017-11-28T04:32:46.939Z,5.90
2017-11-28T04:35:14.459Z,5.90
2017-11-28T04:37:41.939Z,5.90
2017-11-28T04:40:09.384Z,6.00
2017-11-28T04:42:36.845Z,5.90
2017-11-28T04:45:04.267Z,6.00
2017-11-28T04:47:32.482Z,5.90
2017-11-28T04:49:59.952Z,5.90
2017-11-28T04:52:27.406Z,5.90
2017-11-28T04:54:54.870Z,5.80
2017-11-28T04:57:22.340Z,5.80
2017-11-28T04:59:49.763Z,5.80
2017-11-28T05:02:17.178Z,5.80
2017-11-28T05:04:44.611Z,5.80
2017-11-28T05:07:12.032Z,5.80
2017-11-28T05:09:40.247Z,5.80
2017-11-28T05:12:07.671Z,5.70
2017-11-28T05:14:35.902Z,5.80
2017-11-28T05:17:09.147Z,5.80
2017-11-28T05:19:37.367Z,5.80
2017-11-28T05:22:04.823Z,5.80
2017-11-28T05:24:32.288Z,5.80
2017-11-28T05:26:59.711Z,5.80
2017-11-28T05:29:27.918Z,5.80
2017-11-28T05:31:55.431Z,5.70
2017-11-28T05:34:22.876Z,5.80
2017-11-28T05:36:50.316Z,5.70
2017-11-28T05:39:17.775Z,5.70
2017-11-28T05:41:45.231Z,5.70
2017-11-28T05:44:12.690Z,5.60
2017-11-28T05:46:40.152Z,5.60
2017-11-28T05:49:07.620Z,5.50
2017-11-28T05:51:35.074Z,5.50
2017-11-28T05:54:02.502Z,5.50
2017-11-28T05:56:30.683Z,5.30
2017-11-28T05:58:58.175Z,5.30
2017-11-28T06:01:25.597Z,5.30
2017-11-28T06:03:53.811Z,5.20
2017-11-28T06:06:21.258Z,5.20
2017-11-28T06:08:48.691Z,5.20
2017-11-28T06:11:16.881Z,5.10
2017-11-28T06:13:45.095Z,5.10
2017-11-28T06:16:12.557Z,5.10
2017-11-28T06:18:39.988Z,5.10
2017-11-28T06:21:07.419Z,5.10
2017-11-28T06:23:34.947Z,5.20
2017-11-28T06:26:02.370Z,5.20
2017-11-28T06:28:30.554Z,5.20
2017-11-28T06:30:58.052Z,5.20
2017-11-28T06:33:25.624Z,5.10
2017-11-28T06:35:53.067Z,5.10
2017-11-28T06:38:20.490Z,5.10
2017-11-28T06:40:48.688Z,5.00
2017-11-28T06:43:16.163Z,5.00
2017-11-28T06:45:43.635Z,5.10
2017-11-28T06:48:11.090Z,5.10
2017-11-28T06:50:38.510Z,5.20
2017-11-28T06:53:06.707Z,5.30
2017-11-28T06:55:34.136Z,5.30
2017-11-28T06:58:01.651Z,5.30
2017-11-28T07:00:29.146Z,5.30
2017-11-28T07:02:56.568Z,5.30
2017-11-28T07:05:24.434Z,5.40
2017-11-28T07:07:51.835Z,5.40
2017-11-28T07:10:19.259Z,5.40
2017-11-28T07:12:46.687Z,5.40
2017-11-28T07:15:14.877Z,5.50
2017-11-28T07:17:42.294Z,5.50
2017-11-28T07:20:09.822Z,5.50
2017-11-28T07:22:37.295Z,5.50
2017-11-28T07:25:04.695Z,5.50
2017-11-28T07:27:32.128Z,5.50
2017-11-28T07:29:59.552Z,5.50
2017-11-28T07:32:27.035Z,5.50
2017-11-28T07:34:54.499Z,5.60
2017-11-28T07:37:21.917Z,5.60
2017-11-28T07:39:50.111Z,5.70
2017-11-28T07:42:17.546Z,5.60
2017-11-28T07:44:45.051Z,5.70
2017-11-28T07:47:12.476Z,5.70
2017-11-28T07:49:41.223Z,5.70
2017-11-28T07:52:08.764Z,5.70
2017-11-28T07:54:36.223Z,5.70
2017-11-28T07:57:03.653Z,5.60
2017-11-28T07:59:31.920Z,5.60
2017-11-28T08:02:00.154Z,5.70
2017-11-28T08:04:27.611Z,5.70
2017-11-28T08:06:55.080Z,5.70
2017-11-28T08:09:22.503Z,5.70
2017-11-28T08:11:49.994Z,5.70
2017-11-28T08:14:17.431Z,5.70
2017-11-28T08:16:45.631Z,5.80
2017-11-28T08:19:13.088Z,5.80
2017-11-28T08:21:40.511Z,5.90
2017-11-28T08:24:08.696Z,6.00
2017-11-28T08:26:36.898Z,5.90
2017-11-28T08:29:04.362Z,5.90
2017-11-28T08:31:31.796Z,5.90
2017-11-28T08:33:59.992Z,5.90
2017-11-28T08:36:27.412Z,5.90
2017-11-28T08:38:54.832Z,5.90
2017-11-28T08:41:22.279Z,6.10
2017-11-28T08:43:49.695Z,6.20
2017-11-28T08:46:17.117Z,6.20
2017-11-28T08:48:44.548Z,6.20
2017-11-28T08:51:11.961Z,6.30
2017-11-28T08:53:39.379Z,6.30
2017-11-28T08:56:06.858Z,6.30
2017-11-28T08:58:34.315Z,6.40
2017-11-28T09:01:01.743Z,6.50
2017-11-28T09:03:29.955Z,6.50
2017-11-28T09:05:57.413Z,6.50
2017-11-28T09:08:24.832Z,6.60
2017-11-28T09:10:53.028Z,6.50
2017-11-28T09:13:20.452Z,6.50
2017-11-28T09:15:47.871Z,6.50
2017-11-28T09:18:15.291Z,6.70
2017-11-28T09:20:43.519Z,7.20
2017-11-28T09:23:10.926Z,7.20
2017-11-28T09:25:38.343Z,7.30
2017-11-28T09:28:05.799Z,7.40
2017-11-28T09:30:33.223Z,7.50
2017-11-28T09:33:01.411Z,7.80
2017-11-28T09:35:28.904Z,7.80
2017-11-28T09:37:56.366Z,7.90
2017-11-28T09:40:23.824Z,7.90
2017-11-28T09:42:51.246Z,7.80
2017-11-28T09:45:18.667Z,7.90
2017-11-28T09:47:46.122Z,7.90
2017-11-28T09:50:13.563Z,7.90
2017-11-28T09:52:41.040Z,7.70
2017-11-28T09:55:08.488Z,7.60
2017-11-28T09:57:35.944Z,7.50
2017-11-28T10:00:03.417Z,7.30
2017-11-28T10:02:30.856Z,7.30
2017-11-28T10:04:58.344Z,7.40
2017-11-28T10:07:25.800Z,7.50
2017-11-28T10:09:53.237Z,7.60
2017-11-28T10:12:20.704Z,7.80
2017-11-28T10:14:48.177Z,8.00
2017-11-28T10:17:15.727Z,8.20
2017-11-28T10:19:43.139Z,8.20
2017-11-28T10:22:12.092Z,7.90
2017-11-28T10:24:39.548Z,7.90
2017-11-28T10:27:06.997Z,7.70
2017-11-28T10:29:34.494Z,7.60
2017-11-28T10:32:01.928Z,7.60
2017-11-28T10:34:29.336Z,7.80
2017-11-28T10:36:56.952Z,7.90
2017-11-28T10:39:24.427Z,8.00
2017-11-28T10:41:51.902Z,8.00
2017-11-28T10:44:19.352Z,8.30
2017-11-28T10:46:46.795Z,8.50
2017-11-28T10:49:14.271Z,8.70
2017-11-28T10:51:41.754Z,8.80
2017-11-28T10:54:09.192Z,8.90
2017-11-28T10:56:36.627Z,8.90
2017-11-28T10:59:04.127Z,9.00
2017-11-28T11:01:31.552Z,9.00
2017-11-28T11:03:59.035Z,9.10
2017-11-28T11:06:26.468Z,9.00
2017-11-28T11:08:54.664Z,8.70
2017-11-28T11:11:22.229Z,8.60
2017-11-28T11:13:49.703Z,8.50
2017-11-28T11:16:17.128Z,8.40
2017-11-28T11:18:45.325Z,8.50
2017-11-28T11:21:12.748Z,8.50
2017-11-28T11:23:40.268Z,8.50
2017-11-28T11:26:07.767Z,8.40
2017-11-28T11:28:35.182Z,8.40
2017-11-28T11:31:02.603Z,8.30
2017-11-28T11:33:30.799Z,8.20
2017-11-28T11:35:58.220Z,8.20
2017-11-28T11:38:25.650Z,8.30
2017-11-28T11:40:53.066Z,8.30
2017-11-28T11:43:21.251Z,8.20
2017-11-28T11:45:49.458Z,8.20
2017-11-28T11:48:16.876Z,8.20
2017-11-28T11:50:45.111Z,8.10
2017-11-28T11:53:12.567Z,8.10
2017-11-28T11:55:39.995Z,8.10
2017-11-28T11:58:07.557Z,8.10
2017-11-28T12:00:35.763Z,8.10
2017-11-28T12:03:03.186Z,8.10
2017-11-28T12:05:31.407Z,8.20
2017-11-28T12:07:58.830Z,8.20
2017-11-28T12:10:27.039Z,8.30
2017-11-28T12:12:54.508Z,8.30
2017-11-28T12:15:21.947Z,8.40
2017-11-28T12:17:49.371Z,8.50
2017-11-28T12:20:16.817Z,8.50
2017-11-28T12:22:44.235Z,8.60
2017-11-28T12:25:11.803Z,8.60
2017-11-28T12:27:39.285Z,8.50
2017-11-28T12:30:06.722Z,8.60
2017-11-28T12:32:34.135Z,8.60
2017-11-28T12:35:01.565Z,8.60
2017-11-28T12:37:29.019Z,8.50
2017-11-28T12:39:56.446Z,8.50
2017-11-28T12:42:24.662Z,8.70
2017-11-28T12:44:52.123Z,8.70
2017-11-28T12:47:19.569Z,8.90
2017-11-28T12:49:47.048Z,8.90
2017-11-28T12:52:14.505Z,9.00
2017-11-28T12:54:41.971Z,8.90
2017-11-28T12:57:09.383Z,8.90
2017-11-28T12:59:37.575Z,8.80
2017-11-28T13:02:05.005Z,8.80
2017-11-28T13:04:32.428Z,8.90
2017-11-28T13:06:59.891Z,8.90
2017-11-28T13:09:27.339Z,8.90
2017-11-28T13:11:54.763Z,8.90
2017-11-28T13:14:22.967Z,8.90
2017-11-28T13:16:51.175Z,8.90
2017-11-28T13:19:18.718Z,8.90
2017-11-28T13:21:46.140Z,8.80
2017-11-28T13:24:14.330Z,8.50
2017-11-28T13:26:42.545Z,8.40
2017-11-28T13:29:09.979Z,8.40
2017-11-28T13:31:37.391Z,8.20
2017-11-28T13:34:04.818Z,8.10
2017-11-28T13:36:32.282Z,8.00
2017-11-28T13:38:59.749Z,7.90
2017-11-28T13:41:27.174Z,7.80
2017-11-28T13:43:55.364Z,7.80
2017-11-28T13:46:22.844Z,7.80
2017-11-28T13:48:50.303Z,7.80
2017-11-28T13:51:17.748Z,7.70
2017-11-28T13:53:45.940Z,7.60
2017-11-28T13:56:13.408Z,7.60
2017-11-28T13:58:40.834Z,7.60
2017-11-28T14:01:09.045Z,7.60
2017-11-28T14:03:36.463Z,7.60
2017-11-28T14:06:04.683Z,7.60
2017-11-28T14:08:32.116Z,7.60
2017-11-28T14:11:00.295Z,7.60
2017-11-28T14:13:27.719Z,7.50
2017-11-28T14:15:55.155Z,7.50
2017-11-28T14:18:22.604Z,7.50
2017-11-28T14:20:51.544Z,7.40
2017-11-28T14:26:26.452Z,7.30
2017-11-28T14:29:12.733Z,7.40
2017-11-28T14:31:41.599Z,7.40
2017-11-28T14:34:09.019Z,7.40
2017-11-28T14:36:38.882Z,7.40
2017-11-28T14:39:06.720Z,7.40
2017-11-28T14:41:35.820Z,7.40
2017-11-28T14:44:04.711Z,7.30
2017-11-28T14:46:32.892Z,7.30
2017-11-28T14:49:01.086Z,7.20
2017-11-28T14:51:28.517Z,7.20
2017-11-28T14:54:01.651Z,7.10
2017-11-28T14:56:32.896Z,7.10
2017-11-28T14:59:01.092Z,7.00
2017-11-28T15:01:34.319Z,6.90
2017-11-28T15:04:05.620Z,6.70
2017-11-28T15:06:48.708Z,6.60
2017-11-28T15:09:22.632Z,6.50
2017-11-28T15:11:55.707Z,6.50
2017-11-28T15:17:41.378Z,6.40
2017-11-28T15:20:24.445Z,6.40
2017-11-28T15:22:55.448Z,6.40
2017-11-28T15:25:23.628Z,6.20
2017-11-28T15:27:51.818Z,6.20
2017-11-28T15:30:19.272Z,6.20
2017-11-28T15:32:47.458Z,6.00
2017-11-28T15:35:14.938Z,6.10
2017-11-28T15:37:42.403Z,6.00
2017-11-28T15:40:09.863Z,5.90
2017-11-28T15:42:37.328Z,5.90
2017-11-28T15:45:04.777Z,5.80
2017-11-28T15:47:32.187Z,5.80
2017-11-28T15:50:01.114Z,5.60
2017-11-28T15:52:28.599Z,5.60
2017-11-28T15:54:56.066Z,5.50
2017-11-28T15:57:23.484Z,5.60
2017-11-28T15:59:51.703Z,5.50
2017-11-28T16:02:19.127Z,5.50
2017-11-28T16:04:47.352Z,5.50
2017-11-28T16:07:14.863Z,5.50
2017-11-28T16:09:43.091Z,5.50
2017-11-28T16:12:10.523Z,5.50
2017-11-28T16:14:37.948Z,5.50
2017-11-28T16:17:05.386Z,5.50
2017-11-28T16:19:32.808Z,5.40
2017-11-28T16:22:00.264Z,5.50
2017-11-28T16:24:27.751Z,5.60
2017-11-28T16:26:55.335Z,5.60
2017-11-28T16:29:22.779Z,5.70
2017-11-28T16:31:50.239Z,5.80
2017-11-28T16:34:17.667Z,5.90
2017-11-28T16:36:45.209Z,5.80
2017-11-28T16:39:12.728Z,5.80
2017-11-28T16:41:40.152Z,5.80
2017-11-28T16:44:08.368Z,5.70
2017-11-28T16:46:35.779Z,5.70
2017-11-28T16:49:04.024Z,5.70
2017-11-28T16:51:31.559Z,5.60
2017-11-28T16:53:59.027Z,5.60
2017-11-28T16:56:26.491Z,5.70
2017-11-28T16:58:53.923Z,5.60
2017-11-28T17:01:21.406Z,5.60
2017-11-28T17:03:48.835Z,5.50
2017-11-28T17:06:17.027Z,5.40
2017-11-28T17:08:44.496Z,5.40
2017-11-28T17:11:11.929Z,5.40
2017-11-28T17:13:39.439Z,5.30
2017-11-28T17:16:06.877Z,5.30
2017-11-28T17:18:34.286Z,5.20
2017-11-28T17:21:01.716Z,5.20
2017-11-28T17:23:29.185Z,5.20
2017-11-28T17:25:56.703Z,5.10
2017-11-28T17:28:24.107Z,5.10
2017-11-28T17:30:51.534Z,5.10
2017-11-28T17:33:19.057Z,5.10
2017-11-28T17:35:46.575Z,5.20
2017-11-28T17:38:13.981Z,5.30
2017-11-28T17:40:42.209Z,5.40
2017-11-28T17:43:10.494Z,5.50
2017-11-28T17:45:37.973Z,5.50
2017-11-28T17:48:05.471Z,5.60
2017-11-28T17:50:32.895Z,5.60
2017-11-28T17:53:00.326Z,5.60
2017-11-28T17:55:27.757Z,5.60
2017-11-28T17:57:55.172Z,5.70
2017-11-28T18:00:22.607Z,5.70
2017-11-28T18:02:50.787Z,5.50
2017-11-28T18:05:18.270Z,5.40
2017-11-28T18:07:45.835Z,5.40
2017-11-28T18:10:13.262Z,5.30
2017-11-28T18:12:41.668Z,5.20
2017-11-28T18:15:09.144Z,5.20
2017-11-28T18:17:36.579Z,5.20
2017-11-28T18:20:04.070Z,5.20
2017-11-28T18:22:31.495Z,5.20
2017-11-28T18:24:59.078Z,5.20
2017-11-28T18:27:26.480Z,5.10
2017-11-28T18:29:53.998Z,5.00
2017-11-28T18:32:21.417Z,5.00
2017-11-28T18:34:49.025Z,5.10
2017-11-28T18:37:16.487Z,5.10
2017-11-28T18:39:43.949Z,5.20
2017-11-28T18:42:11.364Z,5.20
2017-11-28T18:44:38.873Z,5.20
2017-11-28T18:47:06.280Z,5.20
2017-11-28T18:49:33.793Z,5.10
2017-11-28T18:52:01.288Z,5.10
2017-11-28T18:54:28.774Z,5.10
2017-11-28T18:56:56.176Z,5.10
2017-11-28T18:59:23.670Z,5.10
2017-11-28T19:01:51.091Z,5.10
2017-11-28T19:04:18.542Z,5.10
2017-11-28T19:06:46.743Z,5.30
2017-11-28T19:09:14.220Z,5.30
2017-11-28T19:11:41.646Z,5.30
2017-11-28T19:14:09.123Z,5.40
2017-11-28T19:16:36.600Z,5.50
2017-11-28T19:19:04.023Z,5.50
2017-11-28T19:21:32.211Z,5.50
2017-11-28T19:23:59.636Z,5.50
2017-11-28T19:26:27.059Z,5.40
2017-11-28T19:28:54.505Z,5.40
2017-11-28T19:31:22.952Z,5.40
2017-11-28T19:33:50.391Z,5.30
2017-11-28T19:36:17.850Z,5.30
2017-11-28T19:38:45.286Z,5.20
2017-11-28T19:41:12.743Z,5.20
2017-11-28T19:43:40.230Z,5.20
2017-11-28T19:46:07.781Z,5.10
2017-11-28T19:48:35.206Z,5.10
2017-11-28T19:51:02.672Z,5.00
2017-11-28T19:53:30.144Z,4.90
2017-11-28T19:55:57.580Z,4.80
2017-11-28T19:58:25.766Z,4.60
2017-11-28T20:00:53.204Z,4.60
2017-11-28T20:03:21.404Z,4.40
2017-11-28T20:05:48.881Z,4.40
2017-11-28T20:08:16.303Z,4.40
2017-11-28T20:10:43.731Z,4.30
2017-11-28T20:13:11.160Z,4.30
2017-11-28T20:15:38.583Z,4.30
2017-11-28T20:18:06.011Z,4.20
2017-11-28T20:20:33.426Z,4.20
2017-11-28T20:23:00.884Z,4.10
2017-11-28T20:25:29.103Z,4.10
2017-11-28T20:27:56.561Z,4.10
2017-11-28T20:30:24.022Z,4.00
2017-11-28T20:32:51.494Z,4.00
2017-11-28T20:35:18.918Z,4.00
2017-11-28T20:37:46.407Z,3.90
2017-11-28T20:40:13.852Z,3.90
2017-11-28T20:42:41.272Z,3.90
2017-11-28T20:45:09.473Z,3.90
2017-11-28T20:47:36.903Z,3.80
2017-11-28T20:50:04.327Z,3.80
2017-11-28T20:52:31.744Z,3.80
2017-11-28T20:54:59.965Z,3.70
2017-11-28T20:57:27.445Z,3.70
2017-11-28T20:59:55.707Z,3.80
2017-11-28T21:02:23.166Z,3.90
2017-11-28T21:04:50.591Z,4.00
2017-11-28T21:07:18.806Z,4.00
2017-11-28T21:09:46.279Z,4.00
2017-11-28T21:12:13.764Z,4.00
2017-11-28T21:14:41.208Z,4.00
2017-11-28T21:17:08.662Z,3.90
2017-11-28T21:19:36.202Z,3.80
2017-11-28T21:22:03.638Z,3.80
2017-11-28T21:24:31.047Z,3.70
2017-11-28T21:26:58.507Z,3.60
2017-11-28T21:29:26.587Z,3.60
2017-11-28T21:31:54.030Z,3.50
2017-11-28T21:34:21.442Z,3.50
2017-11-28T21:36:49.670Z,3.50
2017-11-28T21:39:17.131Z,3.50
2017-11-28T21:41:44.574Z,3.50
2017-11-28T21:44:11.999Z,3.50
2017-11-28T21:46:39.516Z,3.50
2017-11-28T21:49:07.009Z,3.50
2017-11-28T21:51:34.412Z,3.50
2017-11-28T21:54:01.840Z,3.50
2017-11-28T21:56:29.266Z,3.50
2017-11-28T21:58:56.779Z,3.40
2017-11-28T22:01:24.959Z,3.30
2017-11-28T22:03:53.151Z,3.20
2017-11-28T22:06:20.634Z,3.20
2017-11-28T22:08:48.131Z,3.10
2017-11-28T22:11:15.573Z,3.10
2017-11-28T22:13:43.011Z,3.00
2017-11-28T22:16:10.508Z,2.90
2017-11-28T22:18:37.922Z,2.90
2017-11-28T22:21:05.416Z,2.90
2017-11-28T22:23:32.871Z,2.80
2017-11-28T22:26:00.302Z,2.70
2017-11-28T22:28:27.824Z,2.80
2017-11-28T22:30:55.351Z,2.70
2017-11-28T22:33:22.772Z,2.70
2017-11-28T22:35:50.204Z,2.70
2017-11-28T22:38:17.651Z,2.70
2017-11-28T22:40:45.080Z,2.70
2017-11-28T22:43:12.650Z,2.70
2017-11-28T22:45:40.071Z,2.80
2017-11-28T22:48:08.280Z,2.70
2017-11-28T22:50:35.707Z,2.70
2017-11-28T22:53:03.228Z,2.70
2017-11-28T22:55:30.647Z,2.70
2017-11-28T22:57:58.852Z,2.60
2017-11-28T23:00:26.264Z,2.60
2017-11-28T23:02:53.794Z,2.50
2017-11-28T23:05:21.211Z,2.50
2017-11-28T23:07:49.515Z,2.50
2017-11-28T23:10:16.991Z,2.50
2017-11-28T23:12:44.449Z,2.40
2017-11-28T23:15:11.906Z,2.40
2017-11-28T23:17:39.348Z,2.40
2017-11-28T23:20:07.552Z,2.40
2017-11-28T23:22:35.019Z,2.40
2017-11-28T23:25:02.438Z,2.30
2017-11-28T23:27:29.939Z,2.30
2017-11-28T23:29:57.362Z,2.30
2017-11-28T23:32:24.856Z,2.30
2017-11-28T23:34:52.353Z,2.20
2017-11-28T23:37:19.878Z,2.20
2017-11-28T23:39:47.306Z,2.20
2017-11-28T23:42:15.491Z,2.30
2017-11-28T23:44:42.915Z,2.20
2017-11-28T23:47:10.331Z,2.30
2017-11-28T23:49:37.785Z,2.30
2017-11-28T23:52:05.943Z,2.20
2017-11-28T23:54:34.182Z,2.20
2017-11-28T23:57:01.625Z,2.10
2017-11-28T23:59:29.079Z,2.10
